Terminal Aerodrome Forecast
Issued by NWS

Home | Current Version | Previous Version | Text Only | Print | Product List | Glossary Off
Versions: 1 2 3 4 5 6 7 8 9 10 11 12 13 14 15 16 17 18 19 20

000
FTUS43 KABR 241700
TAFMBG
TAF
KMBG 241723Z 2418/2518 28007KT P6SM VCSH OVC070
     FM250000 34016G25KT 2SM -RA BR OVC015
     FM250700 34013KT P6SM OVC015=

USA.gov is the U.S. government's official web portal to all federal, state and local government web resources and services.